createdAt,value
2019-03-22T00:00:32.043Z,27.60
2019-03-22T00:03:01.530Z,26.80
2019-03-22T00:05:30.887Z,26.23
2019-03-22T00:08:00.255Z,28.30
2019-03-22T00:10:29.617Z,27.00
2019-03-22T00:12:59.085Z,26.40
2019-03-22T00:15:28.594Z,27.23
2019-03-22T00:17:58.223Z,27.53
2019-03-22T00:20:27.657Z,27.80
2019-03-22T00:22:57.033Z,26.30
2019-03-22T00:25:26.428Z,26.93
2019-03-22T00:27:55.941Z,25.87
2019-03-22T00:30:25.313Z,26.47
2019-03-22T00:32:54.696Z,26.03
2019-03-22T00:35:24.234Z,25.73
2019-03-22T00:37:53.631Z,26.63
2019-03-22T00:40:23.253Z,27.00
2019-03-22T00:42:52.679Z,25.33
2019-03-22T00:45:22.166Z,28.73
2019-03-22T00:47:51.551Z,28.27
2019-03-22T00:50:21.317Z,28.53
2019-03-22T00:52:50.690Z,27.37
2019-03-22T00:55:20.126Z,28.10
2019-03-22T00:57:49.577Z,26.43
2019-03-22T01:00:19.104Z,27.70
2019-03-22T01:02:48.525Z,28.70
2019-03-22T01:05:18.273Z,27.73
2019-03-22T01:07:47.827Z,29.00
2019-03-22T01:10:17.316Z,28.87
2019-03-22T01:12:46.946Z,28.10
2019-03-22T01:15:16.526Z,26.83
2019-03-22T01:17:45.957Z,29.10
2019-03-22T01:20:15.602Z,27.70
2019-03-22T01:22:45.133Z,30.73
2019-03-22T01:25:14.575Z,32.00
2019-03-22T01:27:44.099Z,32.00
2019-03-22T01:30:14.422Z,29.60
2019-03-22T01:32:43.965Z,30.80
2019-03-22T01:35:13.694Z,32.97
2019-03-22T01:37:43.111Z,29.70
2019-03-22T01:40:14.765Z,30.50
2019-03-22T01:42:44.184Z,31.80
2019-03-22T01:45:13.951Z,30.63
2019-03-22T01:47:43.469Z,31.97
2019-03-22T01:50:13.914Z,31.97
2019-03-22T01:52:43.461Z,33.10
2019-03-22T01:55:13.118Z,32.30
2019-03-22T01:57:52.375Z,32.90
2019-03-22T02:00:15.031Z,31.97
2019-03-22T02:02:44.511Z,31.00
2019-03-22T02:05:14.303Z,32.20
2019-03-22T02:07:43.757Z,31.60
2019-03-22T02:10:13.533Z,31.57
2019-03-22T02:12:43.045Z,34.70
2019-03-22T02:15:13.703Z,31.37
2019-03-22T02:17:43.312Z,30.47
2019-03-22T02:20:13.570Z,35.37
2019-03-22T02:22:43.115Z,33.30
2019-03-22T02:25:12.974Z,35.40
2019-03-22T02:27:43.764Z,34.40
2019-03-22T02:30:14.280Z,35.00
2019-03-22T02:32:43.738Z,35.43
2019-03-22T02:35:27.418Z,36.90
2019-03-22T02:37:44.942Z,34.90
2019-03-22T02:40:14.751Z,34.70
2019-03-22T02:42:44.258Z,36.60
2019-03-22T02:45:14.105Z,34.57
2019-03-22T02:47:43.777Z,35.30
2019-03-22T02:50:18.521Z,36.27
2019-03-22T02:52:45.345Z,34.87
2019-03-22T02:55:15.166Z,36.40
2019-03-22T02:57:44.536Z,35.60
2019-03-22T03:00:14.642Z,35.97
2019-03-22T03:02:44.310Z,33.63
2019-03-22T03:05:14.377Z,37.20
2019-03-22T03:07:43.921Z,37.70
2019-03-22T03:10:14.678Z,35.70
2019-03-22T03:12:44.465Z,36.33
2019-03-22T03:15:14.383Z,39.50
2019-03-22T03:17:44.116Z,35.80
2019-03-22T03:20:14.006Z,36.33
2019-03-22T03:22:43.505Z,34.90
2019-03-22T03:25:13.289Z,36.10
2019-03-22T03:27:42.672Z,35.70
2019-03-22T03:30:14.001Z,36.70
2019-03-22T03:32:43.516Z,36.50
2019-03-22T03:35:13.151Z,36.07
2019-03-22T03:37:42.615Z,36.87
2019-03-22T03:40:12.379Z,38.07
2019-03-22T03:42:41.844Z,37.97
2019-03-22T03:45:35.087Z,37.10
2019-03-22T03:48:05.746Z,36.53
2019-03-22T03:50:35.334Z,37.13
2019-03-22T03:53:05.174Z,37.17
2019-03-22T03:55:34.698Z,37.83
2019-03-22T03:58:04.456Z,39.90
2019-03-22T04:00:33.994Z,37.63
2019-03-22T04:03:03.425Z,35.30
2019-03-22T04:05:32.787Z,38.40
2019-03-22T04:08:02.240Z,35.30
2019-03-22T04:10:31.762Z,38.00
2019-03-22T04:13:01.243Z,36.80
2019-03-22T04:15:30.621Z,35.50
2019-03-22T04:17:59.995Z,38.27
2019-03-22T04:20:29.378Z,38.23
2019-03-22T04:23:00.003Z,37.87
2019-03-22T04:25:29.530Z,37.13
2019-03-22T04:27:58.965Z,36.83
2019-03-22T04:30:28.411Z,37.07
2019-03-22T04:32:57.801Z,36.00
2019-03-22T04:35:27.315Z,35.60
2019-03-22T04:37:56.721Z,38.60
2019-03-22T04:40:27.426Z,36.50
2019-03-22T04:42:57.442Z,36.53
2019-03-22T04:45:30.196Z,36.23
2019-03-22T04:48:12.349Z,40.30
2019-03-22T04:50:43.889Z,36.80
2019-03-22T04:53:18.197Z,36.33
2019-03-22T04:55:52.691Z,34.50
2019-03-22T04:58:23.842Z,38.47
2019-03-22T05:00:55.272Z,37.10
2019-03-22T05:03:26.694Z,36.90
2019-03-22T05:05:59.087Z,38.10
2019-03-22T05:08:30.677Z,36.17
2019-03-22T05:11:02.540Z,34.93
2019-03-22T05:13:33.831Z,34.43
2019-03-22T05:16:04.131Z,37.00
2019-03-22T05:18:35.227Z,36.40
2019-03-22T05:21:06.558Z,36.20
2019-03-22T05:23:36.969Z,39.20
2019-03-22T05:26:06.780Z,34.00
2019-03-22T05:28:37.373Z,35.23
2019-03-22T05:31:35.460Z,34.80
2019-03-22T05:34:05.004Z,34.83
2019-03-22T05:36:34.379Z,33.97
2019-03-22T05:39:05.521Z,34.43
2019-03-22T05:41:35.042Z,34.43
2019-03-22T05:44:04.617Z,35.23
2019-03-22T05:46:34.198Z,34.53
2019-03-22T05:49:03.657Z,35.93
2019-03-22T05:51:33.149Z,34.50
2019-03-22T05:54:02.615Z,35.37
2019-03-22T05:56:31.998Z,35.70
2019-03-22T05:59:01.558Z,35.07
2019-03-22T06:01:30.918Z,35.23
2019-03-22T06:04:00.382Z,34.40
2019-03-22T06:06:29.823Z,34.80
2019-03-22T06:08:59.337Z,33.80
2019-03-22T06:11:28.779Z,34.17
2019-03-22T06:13:58.259Z,30.93
2019-03-22T06:16:27.695Z,31.60
2019-03-22T06:18:57.201Z,36.27
2019-03-22T06:21:26.574Z,30.67
2019-03-22T06:23:55.964Z,32.43
2019-03-22T06:26:25.375Z,33.20
2019-03-22T06:28:54.827Z,29.90
2019-03-22T06:31:24.296Z,32.60
2019-03-22T06:33:53.818Z,31.40
2019-03-22T06:36:24.222Z,32.33
2019-03-22T06:38:53.918Z,32.43
2019-03-22T06:41:23.299Z,32.50
2019-03-22T06:43:52.967Z,30.80
2019-03-22T06:46:23.355Z,32.40
2019-03-22T06:48:52.977Z,31.13
2019-03-22T06:51:22.642Z,28.80
2019-03-22T06:53:52.110Z,30.73
2019-03-22T06:56:21.533Z,29.10
2019-03-22T06:58:51.044Z,30.80
2019-03-22T07:01:20.499Z,29.83
2019-03-22T07:03:50.309Z,29.60
2019-03-22T07:06:19.740Z,29.77
2019-03-22T07:08:49.195Z,30.60
2019-03-22T07:11:18.597Z,28.30
2019-03-22T07:13:47.969Z,29.13
2019-03-22T07:16:17.314Z,28.50
2019-03-22T07:18:46.697Z,31.03
2019-03-22T07:21:16.045Z,29.90
2019-03-22T07:23:45.634Z,27.67
2019-03-22T07:26:15.113Z,28.93
2019-03-22T07:28:44.497Z,29.30
2019-03-22T07:31:13.957Z,28.30
2019-03-22T07:33:43.423Z,28.83
2019-03-22T07:36:12.940Z,28.80
2019-03-22T07:38:42.308Z,27.20
2019-03-22T07:41:11.761Z,30.60
2019-03-22T07:43:41.236Z,32.23
2019-03-22T07:46:10.902Z,31.93
2019-03-22T07:48:40.486Z,30.13
2019-03-22T07:51:09.962Z,30.57
2019-03-22T07:53:39.566Z,31.13
2019-03-22T07:56:08.937Z,32.00
2019-03-22T07:58:38.421Z,32.67
2019-03-22T08:01:08.018Z,29.17
2019-03-22T08:06:18.242Z,30.87
2019-03-22T08:08:47.759Z,34.30
2019-03-22T08:11:17.202Z,33.33
2019-03-22T08:13:46.585Z,34.73
2019-03-22T08:16:16.407Z,33.30
2019-03-22T08:18:45.785Z,34.73
2019-03-22T08:23:52.181Z,38.00
2019-03-22T08:26:40.762Z,34.93
2019-03-22T08:29:10.318Z,39.20
2019-03-22T08:31:58.908Z,38.13
2019-03-22T08:34:28.470Z,39.57
2019-03-22T08:37:16.952Z,39.67
2019-03-22T08:39:46.485Z,39.17
2019-03-22T08:42:15.989Z,41.20
2019-03-22T08:44:45.580Z,40.87
2019-03-22T08:47:15.091Z,40.07
2019-03-22T08:49:45.505Z,38.53
2019-03-22T08:52:15.419Z,39.10
2019-03-22T08:54:45.088Z,43.77
2019-03-22T08:57:14.587Z,39.73
2019-03-22T08:59:44.125Z,40.93
2019-03-22T09:02:13.697Z,43.47
2019-03-22T09:04:43.166Z,42.90
2019-03-22T09:07:12.554Z,46.23
2019-03-22T09:09:42.327Z,46.83
2019-03-22T09:12:11.754Z,46.30
2019-03-22T09:14:41.303Z,46.43
2019-03-22T09:17:10.774Z,47.13
2019-03-22T09:19:40.267Z,46.77
2019-03-22T09:22:09.640Z,44.87
2019-03-22T09:24:39.658Z,44.63
2019-03-22T09:27:09.386Z,47.77
2019-03-22T09:29:38.813Z,48.20
2019-03-22T09:32:08.256Z,46.20
2019-03-22T09:34:37.821Z,46.67
2019-03-22T09:37:09.085Z,44.83
2019-03-22T09:39:38.804Z,46.60
2019-03-22T09:42:08.365Z,47.40
2019-03-22T09:44:43.367Z,45.63
2019-03-22T09:47:08.961Z,44.60
2019-03-22T09:49:38.630Z,49.27
2019-03-22T09:52:08.078Z,49.40
2019-03-22T09:54:37.496Z,48.47
2019-03-22T09:57:06.940Z,46.67
2019-03-22T09:59:36.482Z,51.20
2019-03-22T10:02:06.193Z,49.00
2019-03-22T10:04:35.695Z,49.50
2019-03-22T10:07:05.279Z,51.17
2019-03-22T10:09:34.633Z,49.83
2019-03-22T10:12:04.122Z,50.40
2019-03-22T10:14:33.570Z,50.83
2019-03-22T10:17:02.966Z,50.67
2019-03-22T10:19:32.488Z,51.17
2019-03-22T10:22:02.006Z,50.60
2019-03-22T10:24:31.516Z,50.03
2019-03-22T10:27:01.568Z,52.70
2019-03-22T10:29:31.083Z,53.63
2019-03-22T10:32:00.513Z,49.97
2019-03-22T10:34:29.964Z,52.10
2019-03-22T10:36:59.505Z,54.63
2019-03-22T10:39:28.909Z,55.57
2019-03-22T10:41:58.453Z,56.30
2019-03-22T10:44:28.832Z,57.13
2019-03-22T10:46:58.655Z,56.13
2019-03-22T10:49:28.182Z,56.40
2019-03-22T10:51:58.271Z,53.07
2019-03-22T10:54:28.159Z,57.60
2019-03-22T10:56:57.672Z,55.10
2019-03-22T10:59:27.166Z,55.07
2019-03-22T11:02:03.127Z,57.03
2019-03-22T11:04:27.689Z,54.60
2019-03-22T11:06:57.109Z,58.30
2019-03-22T11:09:26.528Z,54.20
2019-03-22T11:11:56.104Z,55.37
2019-03-22T11:14:25.824Z,52.80
2019-03-22T11:16:55.675Z,55.97
2019-03-22T11:19:25.128Z,57.50
2019-03-22T11:21:54.592Z,57.73
2019-03-22T11:24:24.134Z,56.67
2019-03-22T11:26:54.473Z,56.90
2019-03-22T11:29:23.945Z,56.03
2019-03-22T11:31:53.326Z,55.20
2019-03-22T11:34:22.958Z,57.70
2019-03-22T11:36:52.410Z,58.40
2019-03-22T11:39:21.951Z,57.97
2019-03-22T11:41:51.513Z,53.40
2019-03-22T11:44:21.234Z,56.87
2019-03-22T11:46:50.772Z,62.37
2019-03-22T11:49:20.310Z,59.00
2019-03-22T11:51:49.749Z,58.83
2019-03-22T11:54:19.122Z,58.90
2019-03-22T11:56:48.578Z,60.50
2019-03-22T11:59:18.009Z,56.17
2019-03-22T12:01:47.493Z,56.40
2019-03-22T12:04:16.887Z,56.80
2019-03-22T12:06:46.365Z,56.33
2019-03-22T12:09:15.976Z,59.00
2019-03-22T12:11:45.430Z,58.80
2019-03-22T12:14:14.807Z,59.70
2019-03-22T12:16:44.257Z,59.17
2019-03-22T12:19:13.750Z,58.93
2019-03-22T12:21:43.214Z,58.33
2019-03-22T12:24:12.711Z,56.87
2019-03-22T12:26:42.246Z,57.00
2019-03-22T12:29:11.681Z,57.87
2019-03-22T12:31:41.106Z,57.90
2019-03-22T12:34:10.468Z,53.60
2019-03-22T12:36:39.915Z,55.20
2019-03-22T12:39:10.566Z,52.80
2019-03-22T12:41:40.079Z,56.07
2019-03-22T12:44:09.671Z,57.17
2019-03-22T12:46:39.098Z,52.70
2019-03-22T12:49:08.476Z,53.50
2019-03-22T12:51:37.954Z,51.67
2019-03-22T12:54:07.342Z,54.60
2019-03-22T12:56:36.762Z,56.33
2019-03-22T12:59:06.216Z,50.70
2019-03-22T13:01:35.645Z,51.17
2019-03-22T13:04:05.373Z,52.83
2019-03-22T13:06:34.801Z,55.77
2019-03-22T13:09:06.024Z,55.17
2019-03-22T13:11:35.548Z,54.77
2019-03-22T13:14:04.994Z,52.70
2019-03-22T13:16:34.447Z,53.97
2019-03-22T13:19:03.934Z,51.47
2019-03-22T13:21:35.472Z,53.13
2019-03-22T13:24:04.907Z,54.27
2019-03-22T13:26:34.368Z,53.60
2019-03-22T13:29:04.322Z,55.00
2019-03-22T13:31:33.753Z,51.80
2019-03-22T13:34:03.318Z,52.87
2019-03-22T13:36:32.770Z,51.77
2019-03-22T13:39:02.255Z,51.20
2019-03-22T13:41:31.639Z,50.60
2019-03-22T13:44:01.283Z,50.40
2019-03-22T13:46:39.962Z,50.60
2019-03-22T13:49:01.910Z,50.77
2019-03-22T13:51:31.426Z,50.77
2019-03-22T13:54:00.770Z,48.47
2019-03-22T13:56:30.269Z,46.40
2019-03-22T13:58:59.682Z,46.73
2019-03-22T14:01:29.133Z,48.37
2019-03-22T14:03:58.590Z,44.97
2019-03-22T14:06:28.014Z,47.53
2019-03-22T14:08:57.382Z,44.63
2019-03-22T14:11:26.839Z,43.37
2019-03-22T14:13:56.320Z,43.97
2019-03-22T14:16:25.706Z,45.20
2019-03-22T14:18:55.181Z,43.57
2019-03-22T14:21:24.752Z,44.77
2019-03-22T14:23:54.097Z,42.50
2019-03-22T14:26:23.489Z,42.30
2019-03-22T14:28:52.861Z,41.50
2019-03-22T14:31:22.516Z,42.47
2019-03-22T14:33:51.882Z,43.03
2019-03-22T14:36:21.414Z,39.73
2019-03-22T14:38:50.773Z,39.07
2019-03-22T14:41:20.230Z,41.00
2019-03-22T14:43:49.702Z,39.57
2019-03-22T14:46:19.088Z,38.10
2019-03-22T14:48:48.641Z,39.10
2019-03-22T14:51:18.070Z,37.93
2019-03-22T14:53:47.653Z,40.67
2019-03-22T14:56:17.130Z,37.00
2019-03-22T14:58:46.599Z,37.90
2019-03-22T15:01:16.057Z,38.47
2019-03-22T15:03:45.586Z,37.70
2019-03-22T15:06:15.007Z,36.70
2019-03-22T15:08:44.620Z,35.90
2019-03-22T15:11:14.058Z,36.53
2019-03-22T15:14:02.658Z,35.30
2019-03-22T15:16:51.513Z,34.67
2019-03-22T15:19:52.417Z,33.20
2019-03-22T15:22:32.792Z,33.60
2019-03-22T15:25:23.311Z,32.40
2019-03-22T15:28:10.533Z,33.97
2019-03-22T15:31:08.157Z,33.07
2019-03-22T15:33:55.511Z,33.70
2019-03-22T15:36:50.649Z,35.50
2019-03-22T15:39:45.005Z,37.50
2019-03-22T15:42:14.510Z,39.00
2019-03-22T15:44:43.885Z,36.33
2019-03-22T15:47:13.497Z,36.40
2019-03-22T15:49:42.972Z,38.10
2019-03-22T15:52:12.494Z,37.77
2019-03-22T15:54:42.292Z,36.23
2019-03-22T15:57:11.839Z,36.07
2019-03-22T15:59:41.382Z,35.97
2019-03-22T16:02:10.895Z,33.80
2019-03-22T16:04:40.479Z,37.60
2019-03-22T16:07:09.906Z,34.03
2019-03-22T16:09:39.335Z,36.07
2019-03-22T16:12:08.767Z,35.17
2019-03-22T16:14:38.413Z,31.10
2019-03-22T16:17:07.977Z,43.30
2019-03-22T16:19:37.424Z,40.57
2019-03-22T16:22:11.667Z,49.67
2019-03-22T16:24:41.462Z,50.07
2019-03-22T16:27:10.913Z,50.27
2019-03-22T16:29:40.383Z,56.00
2019-03-22T16:32:09.861Z,57.03
2019-03-22T16:34:39.526Z,54.80
2019-03-22T16:37:08.954Z,54.73
2019-03-22T16:39:38.329Z,55.80
2019-03-22T16:42:07.806Z,60.00
2019-03-22T16:44:37.402Z,61.13
2019-03-22T16:47:07.114Z,60.80
2019-03-22T16:49:36.673Z,62.17
2019-03-22T16:52:06.282Z,60.03
2019-03-22T16:54:35.743Z,64.70
2019-03-22T16:57:05.305Z,62.20
2019-03-22T16:59:34.771Z,61.10
2019-03-22T17:02:04.292Z,63.47
2019-03-22T17:04:33.814Z,60.97
2019-03-22T17:07:03.387Z,61.77
2019-03-22T17:09:32.904Z,59.77
2019-03-22T17:12:02.618Z,60.87
2019-03-22T17:14:32.090Z,63.43
2019-03-22T17:17:01.489Z,62.27
2019-03-22T17:19:30.915Z,65.67
2019-03-22T17:22:00.414Z,60.47
2019-03-22T17:24:31.503Z,62.13
2019-03-22T17:27:01.075Z,61.07
2019-03-22T17:29:30.542Z,61.27
2019-03-22T17:32:00.207Z,59.10
2019-03-22T17:34:29.586Z,62.30
2019-03-22T17:36:59.086Z,57.53
2019-03-22T17:39:28.635Z,57.73
2019-03-22T17:41:58.207Z,61.00
2019-03-22T17:44:27.659Z,60.23
2019-03-22T17:46:57.181Z,58.97
2019-03-22T17:49:26.765Z,59.70
2019-03-22T17:51:56.374Z,59.70
2019-03-22T17:54:25.893Z,60.87
2019-03-22T17:56:55.386Z,56.17
2019-03-22T17:59:24.886Z,57.07
2019-03-22T18:01:54.490Z,58.03
2019-03-22T18:04:24.519Z,58.07
2019-03-22T18:06:54.138Z,57.37
2019-03-22T18:09:23.553Z,58.57
2019-03-22T18:11:53.062Z,56.00
2019-03-22T18:14:22.468Z,56.10
2019-03-22T18:16:51.946Z,59.93
2019-03-22T18:19:21.552Z,58.30
2019-03-22T18:21:51.172Z,54.93
2019-03-22T18:24:20.897Z,54.97
2019-03-22T18:26:50.480Z,56.03
2019-03-22T18:29:20.071Z,56.33
2019-03-22T18:31:49.741Z,56.20
2019-03-22T18:34:19.391Z,57.70
2019-03-22T18:36:48.876Z,54.10
2019-03-22T18:39:18.303Z,53.77
2019-03-22T18:41:47.952Z,52.77
2019-03-22T18:44:17.454Z,55.53
2019-03-22T18:46:47.069Z,54.83
2019-03-22T18:49:16.592Z,55.20
2019-03-22T18:51:47.825Z,53.23
2019-03-22T18:54:17.432Z,59.40
2019-03-22T18:56:47.015Z,52.40
2019-03-22T18:59:16.578Z,52.40
2019-03-22T19:01:46.164Z,57.27
2019-03-22T19:04:15.739Z,56.23
2019-03-22T19:06:45.110Z,51.17
2019-03-22T19:09:14.721Z,55.60
2019-03-22T19:11:44.137Z,56.57
2019-03-22T19:14:13.590Z,54.40
2019-03-22T19:16:43.005Z,55.13
2019-03-22T19:19:12.390Z,61.23
2019-03-22T19:21:41.778Z,53.87
2019-03-22T19:24:11.294Z,62.10
2019-03-22T19:26:40.746Z,59.77
2019-03-22T19:29:10.126Z,61.30
2019-03-22T19:31:39.597Z,62.50
2019-03-22T19:34:10.451Z,64.70
2019-03-22T19:36:40.018Z,65.50
2019-03-22T19:39:09.565Z,62.10
2019-03-22T19:41:39.031Z,60.93
2019-03-22T19:44:08.640Z,61.37
2019-03-22T19:46:38.062Z,60.27
2019-03-22T19:49:07.609Z,61.57
2019-03-22T19:51:37.054Z,61.47
2019-03-22T19:54:06.492Z,63.07
2019-03-22T19:56:36.181Z,63.37
2019-03-22T19:59:05.702Z,62.00
2019-03-22T20:01:35.110Z,65.60
2019-03-22T20:04:04.651Z,61.90
2019-03-22T20:06:34.297Z,58.80
2019-03-22T20:09:07.028Z,60.40
2019-03-22T20:11:36.672Z,62.50
2019-03-22T20:14:06.463Z,63.90
2019-03-22T20:16:35.916Z,61.20
2019-03-22T20:19:05.402Z,61.27
2019-03-22T20:21:34.856Z,63.17
2019-03-22T20:24:04.410Z,54.53
2019-03-22T20:26:33.819Z,60.50
2019-03-22T20:29:03.360Z,60.30
2019-03-22T20:31:32.850Z,64.60
2019-03-22T20:34:02.396Z,63.60
2019-03-22T20:36:31.946Z,61.00
2019-03-22T20:39:01.333Z,56.93
2019-03-22T20:41:30.897Z,57.90
2019-03-22T20:44:00.342Z,61.57
2019-03-22T20:46:29.780Z,59.50
2019-03-22T20:48:59.171Z,57.23
2019-03-22T20:51:28.650Z,57.00
2019-03-22T20:53:58.014Z,60.27
2019-03-22T20:56:27.482Z,57.93
2019-03-22T20:58:56.898Z,57.97
2019-03-22T21:01:26.405Z,57.93
2019-03-22T21:03:55.926Z,62.90
2019-03-22T21:06:25.397Z,62.40
2019-03-22T21:08:54.938Z,60.83
2019-03-22T21:11:24.500Z,55.80
2019-03-22T21:13:53.974Z,64.43
2019-03-22T21:16:23.371Z,58.83
2019-03-22T21:18:53.007Z,64.40
2019-03-22T21:21:25.401Z,59.70
2019-03-22T21:23:53.709Z,64.50
2019-03-22T21:26:23.151Z,63.70
2019-03-22T21:28:52.583Z,64.87
2019-03-22T21:31:21.950Z,60.60
2019-03-22T21:33:51.477Z,61.17
2019-03-22T21:36:20.934Z,59.57
2019-03-22T21:38:50.398Z,60.37
2019-03-22T21:41:19.777Z,63.20
2019-03-22T21:43:49.179Z,62.77
2019-03-22T21:46:18.616Z,60.00
2019-03-22T21:48:48.126Z,63.60
2019-03-22T21:51:17.567Z,63.80
2019-03-22T21:53:46.998Z,60.07
2019-03-22T21:56:16.562Z,59.17
2019-03-22T21:58:45.936Z,62.23
2019-03-22T22:01:15.454Z,64.20
2019-03-22T22:03:44.929Z,64.93
2019-03-22T22:06:14.445Z,60.20
2019-03-22T22:08:43.795Z,67.13
2019-03-22T22:11:13.309Z,62.83
2019-03-22T22:13:42.862Z,60.63
2019-03-22T22:16:12.366Z,60.67
2019-03-22T22:18:41.828Z,60.90
2019-03-22T22:21:11.387Z,60.93
2019-03-22T22:23:40.905Z,60.33
2019-03-22T22:26:10.294Z,55.90
2019-03-22T22:28:39.752Z,55.43
2019-03-22T22:31:09.118Z,52.57
2019-03-22T22:33:38.482Z,48.90
2019-03-22T22:36:07.913Z,49.90
2019-03-22T22:38:37.496Z,49.80
2019-03-22T22:41:07.041Z,51.40
2019-03-22T22:43:36.482Z,48.47
2019-03-22T22:46:06.281Z,45.87
2019-03-22T22:48:35.721Z,48.90
2019-03-22T22:51:05.284Z,45.77
2019-03-22T22:53:34.682Z,48.83
2019-03-22T22:56:04.159Z,47.57
2019-03-22T22:58:33.526Z,49.40
2019-03-22T23:01:03.033Z,45.53
2019-03-22T23:03:32.462Z,47.63
2019-03-22T23:06:09.310Z,46.97
2019-03-22T23:08:33.122Z,45.60
2019-03-22T23:11:02.552Z,45.23
2019-03-22T23:13:31.924Z,45.70
2019-03-22T23:16:01.475Z,48.03
2019-03-22T23:18:30.962Z,44.97
2019-03-22T23:21:00.393Z,42.87
2019-03-22T23:23:29.844Z,46.73
2019-03-22T23:25:59.382Z,45.70
2019-03-22T23:28:28.714Z,46.40
2019-03-22T23:30:58.086Z,43.53
2019-03-22T23:33:27.441Z,46.67
2019-03-22T23:35:56.821Z,44.40
2019-03-22T23:38:26.336Z,45.83
2019-03-22T23:40:55.857Z,46.13
2019-03-22T23:43:25.360Z,46.03
2019-03-22T23:45:54.933Z,47.63
2019-03-22T23:48:24.613Z,47.40
2019-03-22T23:50:54.189Z,46.03
2019-03-22T23:53:23.638Z,43.87
2019-03-22T23:55:53.069Z,45.30
2019-03-22T23:58:22.551Z,44.77
